Sheila Ann — C6FD2 — position and weather

sailwx.info

Track history (hours):
 
Tides and Currents Weather Stations Pressure Air Temp Water Temp Dewpoint Dewpoint Depression Visibility Wind Speed Wind Dir Waves Ship Positions

Sheila Ann

Last reported at 2018-Jan-19 18:47 UTC. Time now 2018-Jan-20 02:48 UTC.
Position N 36°13' W 122°30'.

Length 225 m; draft 11.4 m.

Type: Cargo ship. MMSI: 308717000.

Date/timePositionNaut miles runAvg speedWind from/ knotsBaromVisibWave heightAir tempDewpointWater temp
2018-Jan-19 18:47N 36°13' W 122°30'310.3
2018-Jan-19 18:29N 36°11' W 122°29'510.4
2018-Jan-19 18:00N 36°06' W 122°26'510.0
2018-Jan-19 17:30N 36°02' W 122°23'510.0
2018-Jan-19 17:00N 35°57' W 122°20'5 9.9
2018-Jan-19 16:30N 35°53' W 122°17'5 9.8
2018-Jan-19 16:00N 35°48' W 122°15'5 9.9
2018-Jan-19 15:29N 35°44' W 122°12'6710.1
2018-Jan-19 08:49N 34°44' W 121°34'2310.0
2018-Jan-19 06:29N 34°24' W 121°21'510.7
2018-Jan-19 06:00N 34°19' W 121°18'510.4
2018-Jan-19 05:30N 34°14' W 121°15'510.7
2018-Jan-19 05:00N 34°10' W 121°12'510.5
2018-Jan-19 04:30N 34°05' W 121°10'510.4
2018-Jan-19 04:00N 34°00' W 121°07'510.6
2018-Jan-19 03:30N 33°56' W 121°04'510.5
2018-Jan-19 03:00N 33°51' W 121°01'5 9.9
2018-Jan-19 02:30N 33°47' W 120°57'5 9.6
2018-Jan-19 02:00N 33°43' W 120°54'510.2
2018-Jan-19 01:30N 33°39' W 120°50'510.5
2018-Jan-19 00:59N 33°35' W 120°46'510.2
2018-Jan-19 00:30N 33°31' W 120°43'510.4
2018-Jan-19 00:00N 33°27' W 120°39'510.3
2018-Jan-18 23:30N 33°23' W 120°35'510.0
2018-Jan-18 23:00N 33°19' W 120°31'510.4
2018-Jan-18 22:30N 33°15' W 120°27'610.6
2018-Jan-18 21:59N 33°10' W 120°23'511.0
2018-Jan-18 21:31N 33°06' W 120°20'610.8
2018-Jan-18 21:00N 33°02' W 120°16'  
Track history (hours):
 
Tides and Currents Weather Stations Pressure Air Temp Water Temp Dewpoint Dewpoint Depression Visibility Wind Speed Wind Dir Waves Ship Positions

Sheila Ann

Last reported at 2018-Jan-19 18:47 UTC. Time now 2018-Jan-20 02:48 UTC.
Position N 36°13' W 122°30'.

Length 225 m; draft 11.4 m.

Type: Cargo ship. MMSI: 308717000.

Date/timePositionNaut miles runAvg speedWind from/ knotsBaromVisibWave heightAir tempDewpointWater temp
2018-Jan-19 18:47N 36°13' W 122°30'310.3
2018-Jan-19 18:29N 36°11' W 122°29'510.4
2018-Jan-19 18:00N 36°06' W 122°26'510.0
2018-Jan-19 17:30N 36°02' W 122°23'510.0
2018-Jan-19 17:00N 35°57' W 122°20'5 9.9
2018-Jan-19 16:30N 35°53' W 122°17'5 9.8
2018-Jan-19 16:00N 35°48' W 122°15'5 9.9
2018-Jan-19 15:29N 35°44' W 122°12'6710.1
2018-Jan-19 08:49N 34°44' W 121°34'2310.0
2018-Jan-19 06:29N 34°24' W 121°21'510.7
2018-Jan-19 06:00N 34°19' W 121°18'510.4
2018-Jan-19 05:30N 34°14' W 121°15'510.7
2018-Jan-19 05:00N 34°10' W 121°12'510.5
2018-Jan-19 04:30N 34°05' W 121°10'510.4
2018-Jan-19 04:00N 34°00' W 121°07'510.6
2018-Jan-19 03:30N 33°56' W 121°04'510.5
2018-Jan-19 03:00N 33°51' W 121°01'5 9.9
2018-Jan-19 02:30N 33°47' W 120°57'5 9.6
2018-Jan-19 02:00N 33°43' W 120°54'510.2
2018-Jan-19 01:30N 33°39' W 120°50'510.5
2018-Jan-19 00:59N 33°35' W 120°46'510.2
2018-Jan-19 00:30N 33°31' W 120°43'510.4
2018-Jan-19 00:00N 33°27' W 120°39'510.3
2018-Jan-18 23:30N 33°23' W 120°35'510.0
2018-Jan-18 23:00N 33°19' W 120°31'510.4
2018-Jan-18 22:30N 33°15' W 120°27'610.6
2018-Jan-18 21:59N 33°10' W 120°23'511.0
2018-Jan-18 21:31N 33°06' W 120°20'610.8
2018-Jan-18 21:00N 33°02' W 120°16'  

Dump ship's entire track history